createdAt,value
2023-03-01T00:01:40.801Z,6.10
2023-03-01T00:04:07.603Z,6.50
2023-03-01T00:06:34.455Z,6.63
2023-03-01T00:09:01.114Z,5.50
2023-03-01T00:11:31.660Z,6.07
2023-03-01T00:14:05.699Z,5.85
2023-03-01T00:16:36.329Z,5.88
2023-03-01T00:19:03.756Z,5.43
2023-03-01T00:21:30.483Z,6.10
2023-03-01T00:23:58.075Z,6.35
2023-03-01T00:26:26.997Z,5.90
2023-03-01T00:28:54.615Z,6.03
2023-03-01T00:31:24.686Z,5.10
2023-03-01T00:34:04.839Z,5.35
2023-03-01T00:36:36.678Z,6.10
2023-03-01T00:39:08.344Z,6.78
2023-03-01T00:41:35.604Z,6.72
2023-03-01T00:44:02.810Z,6.78
2023-03-01T00:46:31.492Z,6.05
2023-03-01T00:48:58.606Z,7.43
2023-03-01T00:51:28.511Z,6.85
2023-03-01T00:54:00.601Z,7.72
2023-03-01T00:56:27.980Z,7.85
2023-03-01T00:58:54.694Z,8.45
2023-03-01T01:01:28.095Z,8.05
2023-03-01T01:03:58.436Z,8.50
2023-03-01T01:06:29.987Z,10.00
2023-03-01T01:08:57.424Z,9.15
2023-03-01T01:11:28.923Z,7.95
2023-03-01T01:13:57.574Z,7.53
2023-03-01T01:16:27.362Z,7.43
2023-03-01T01:18:54.594Z,7.38
2023-03-01T01:21:24.018Z,6.95
2023-03-01T01:23:51.780Z,7.80
2023-03-01T01:26:24.187Z,7.20
2023-03-01T01:28:52.167Z,7.63
2023-03-01T01:31:19.981Z,7.50
2023-03-01T01:33:47.395Z,7.32
2023-03-01T01:36:14.071Z,7.57
2023-03-01T01:38:41.485Z,8.95
2023-03-01T01:41:08.225Z,7.20
2023-03-01T01:43:49.087Z,7.50
2023-03-01T01:46:37.611Z,7.35
2023-03-01T01:49:36.751Z,7.75
2023-03-01T01:52:31.051Z,10.82
2023-03-01T01:55:05.552Z,10.43
2023-03-01T01:57:46.276Z,10.00
2023-03-01T02:00:24.638Z,10.10
2023-03-01T02:02:57.617Z,10.70
2023-03-01T02:05:30.372Z,9.90
2023-03-01T02:07:59.320Z,10.80
2023-03-01T02:10:28.752Z,10.75
2023-03-01T02:12:57.034Z,9.35
2023-03-01T02:15:24.917Z,10.13
2023-03-01T02:17:51.914Z,10.63
2023-03-01T02:20:40.988Z,9.13
2023-03-01T02:23:09.123Z,9.00
2023-03-01T02:25:55.655Z,8.88
2023-03-01T02:28:30.427Z,8.27
2023-03-01T02:31:16.159Z,9.20
2023-03-01T02:33:45.107Z,10.30
2023-03-01T02:36:20.825Z,8.77
2023-03-01T02:38:50.853Z,9.52
2023-03-01T02:41:20.193Z,8.13
2023-03-01T02:43:47.334Z,9.07
2023-03-01T02:46:25.608Z,9.27
2023-03-01T02:48:58.311Z,10.00
2023-03-01T02:51:34.346Z,8.55
2023-03-01T02:54:50.290Z,9.30
2023-03-01T02:57:18.417Z,9.45
2023-03-01T02:59:45.822Z,10.25
2023-03-01T03:02:37.386Z,11.07
2023-03-01T03:05:33.958Z,8.73
2023-03-01T03:08:03.662Z,9.52
2023-03-01T03:10:38.449Z,9.25
2023-03-01T03:13:16.026Z,8.48
2023-03-01T03:15:44.876Z,8.82
2023-03-01T03:18:16.869Z,8.73
2023-03-01T03:20:45.509Z,8.43
2023-03-01T03:23:12.761Z,9.73
2023-03-01T03:25:40.216Z,8.35
2023-03-01T03:28:11.457Z,11.10
2023-03-01T03:30:41.704Z,8.88
2023-03-01T03:33:13.110Z,8.10
2023-03-01T03:35:48.557Z,9.60
2023-03-01T03:38:18.811Z,8.05
2023-03-01T03:41:03.437Z,9.63
2023-03-01T03:43:33.433Z,8.77
2023-03-01T03:46:00.964Z,8.88
2023-03-01T03:48:28.227Z,8.32
2023-03-01T03:50:57.346Z,9.23
2023-03-01T03:53:27.084Z,9.10
2023-03-01T03:55:54.787Z,8.57
2023-03-01T03:58:24.625Z,9.65
2023-03-01T04:00:57.977Z,8.63
2023-03-01T04:03:27.590Z,10.40
2023-03-01T04:05:54.549Z,8.80
2023-03-01T04:08:23.464Z,9.32
2023-03-01T04:10:57.793Z,10.25
2023-03-01T04:13:26.263Z,9.40
2023-03-01T04:15:55.352Z,9.18
2023-03-01T04:18:26.028Z,9.30
2023-03-01T04:20:56.185Z,8.82
2023-03-01T04:23:23.093Z,9.02
2023-03-01T04:25:56.415Z,8.98
2023-03-01T04:28:28.897Z,9.98
2023-03-01T04:30:58.201Z,8.10
2023-03-01T04:33:26.262Z,9.50
2023-03-01T04:35:53.323Z,9.95
2023-03-01T04:38:22.101Z,9.35
2023-03-01T04:40:49.153Z,9.32
2023-03-01T04:43:15.916Z,9.15
2023-03-01T04:45:43.263Z,10.73
2023-03-01T04:48:10.350Z,9.95
2023-03-01T04:50:37.173Z,9.10
2023-03-01T04:53:04.216Z,10.02
2023-03-01T04:55:31.222Z,9.88
2023-03-01T04:57:58.074Z,9.75
2023-03-01T05:00:25.080Z,10.13
2023-03-01T05:02:57.353Z,9.18
2023-03-01T05:05:32.023Z,10.93
2023-03-01T05:08:01.950Z,10.27
2023-03-01T05:10:31.414Z,9.27
2023-03-01T05:13:00.060Z,9.77
2023-03-01T05:15:28.855Z,9.07
2023-03-01T05:17:59.613Z,10.32
2023-03-01T05:20:29.654Z,10.73
2023-03-01T05:23:00.021Z,10.02
2023-03-01T05:25:27.535Z,9.23
2023-03-01T05:27:54.518Z,9.75
2023-03-01T05:30:22.651Z,9.65
2023-03-01T05:32:56.504Z,10.15
2023-03-01T05:35:26.396Z,9.98
2023-03-01T05:37:53.893Z,13.15
2023-03-01T05:40:25.047Z,10.55
2023-03-01T05:42:56.241Z,10.15
2023-03-01T05:45:25.874Z,13.90
2023-03-01T05:47:53.323Z,10.75
2023-03-01T05:50:26.749Z,11.57
2023-03-01T05:53:00.160Z,11.15
2023-03-01T05:55:29.090Z,10.70
2023-03-01T05:57:56.599Z,10.88
2023-03-01T06:00:23.633Z,12.23
2023-03-01T06:02:51.229Z,10.73
2023-03-01T06:05:18.060Z,12.50
2023-03-01T06:07:45.071Z,12.13
2023-03-01T06:10:14.041Z,11.45
2023-03-01T06:12:43.235Z,12.00
2023-03-01T06:15:13.413Z,10.75
2023-03-01T06:17:43.292Z,9.98
2023-03-01T06:20:17.992Z,10.98
2023-03-01T06:22:45.644Z,11.23
2023-03-01T06:25:14.584Z,10.20
2023-03-01T06:27:43.029Z,9.98
2023-03-01T06:30:16.780Z,11.77
2023-03-01T06:32:44.028Z,10.27
2023-03-01T06:35:13.104Z,11.68
2023-03-01T06:37:40.854Z,10.82
2023-03-01T06:40:09.923Z,12.13
2023-03-01T06:42:37.132Z,12.93
2023-03-01T06:45:06.458Z,10.48
2023-03-01T06:47:34.582Z,12.65
2023-03-01T06:50:03.404Z,12.18
2023-03-01T06:52:30.538Z,12.73
2023-03-01T06:54:57.515Z,12.10
2023-03-01T06:57:24.578Z,12.00
2023-03-01T06:59:51.319Z,10.50
2023-03-01T07:02:18.357Z,10.45
2023-03-01T07:04:45.245Z,11.68
2023-03-01T07:07:12.449Z,10.73
2023-03-01T07:09:39.174Z,10.88
2023-03-01T07:12:06.435Z,10.20
2023-03-01T07:14:33.231Z,10.02
2023-03-01T07:16:59.995Z,9.80
2023-03-01T07:19:26.900Z,11.43
2023-03-01T07:21:53.744Z,10.32
2023-03-01T07:24:20.481Z,9.82
2023-03-01T07:26:51.607Z,9.82
2023-03-01T07:29:19.322Z,9.88
2023-03-01T07:31:46.180Z,9.05
2023-03-01T07:34:13.186Z,10.05
2023-03-01T07:36:40.635Z,11.43
2023-03-01T07:39:07.582Z,10.45
2023-03-01T07:41:34.321Z,10.60
2023-03-01T07:44:01.256Z,10.07
2023-03-01T07:46:28.423Z,10.80
2023-03-01T07:48:55.196Z,10.88
2023-03-01T07:51:22.328Z,12.60
2023-03-01T07:53:49.749Z,10.65
2023-03-01T07:56:19.354Z,11.30
2023-03-01T07:58:47.397Z,10.88
2023-03-01T08:01:21.837Z,10.52
2023-03-01T08:03:49.438Z,10.18
2023-03-01T08:06:18.790Z,10.45
2023-03-01T08:08:46.452Z,10.32
2023-03-01T08:11:15.821Z,9.90
2023-03-01T08:13:44.387Z,9.65
2023-03-01T08:16:15.521Z,9.68
2023-03-01T08:18:44.063Z,10.00
2023-03-01T08:21:15.484Z,9.93
2023-03-01T08:23:42.915Z,9.95
2023-03-01T08:26:13.250Z,9.30
2023-03-01T08:28:40.872Z,9.30
2023-03-01T08:31:27.591Z,10.52
2023-03-01T08:33:59.078Z,9.77
2023-03-01T08:36:28.827Z,10.77
2023-03-01T08:38:56.300Z,10.05
2023-03-01T08:41:23.363Z,9.48
2023-03-01T08:43:50.465Z,8.85
2023-03-01T08:46:19.104Z,10.55
2023-03-01T08:48:45.991Z,9.23
2023-03-01T08:51:19.503Z,10.80
2023-03-01T08:53:46.739Z,9.73
2023-03-01T08:56:14.241Z,9.15
2023-03-01T08:58:44.259Z,10.73
2023-03-01T09:01:14.057Z,9.85
2023-03-01T09:03:40.745Z,9.88
2023-03-01T09:06:10.855Z,8.43
2023-03-01T09:08:39.957Z,10.15
2023-03-01T09:11:08.731Z,10.00
2023-03-01T09:13:35.968Z,9.27
2023-03-01T09:16:06.564Z,9.50
2023-03-01T09:18:34.518Z,8.40
2023-03-01T09:21:08.325Z,8.82
2023-03-01T09:23:44.174Z,9.82
2023-03-01T09:26:17.497Z,9.27
2023-03-01T09:28:45.545Z,11.02
2023-03-01T09:31:14.075Z,9.05
2023-03-01T09:33:42.909Z,9.60
2023-03-01T09:36:14.545Z,8.93
2023-03-01T09:38:41.377Z,9.45
2023-03-01T09:41:18.370Z,9.63
2023-03-01T09:43:58.291Z,8.98
2023-03-01T09:46:27.821Z,8.18
2023-03-01T09:49:11.946Z,8.32
2023-03-01T09:51:38.748Z,8.55
2023-03-01T09:54:09.314Z,8.80
2023-03-01T09:56:41.255Z,7.82
2023-03-01T09:59:26.202Z,7.95
2023-03-01T10:02:33.358Z,8.80
2023-03-01T10:07:53.983Z,9.25
2023-03-01T10:10:36.902Z,8.07
2023-03-01T10:13:18.281Z,8.27
2023-03-01T10:16:14.900Z,8.00
2023-03-01T10:18:42.392Z,8.27
2023-03-01T10:21:20.226Z,9.10
2023-03-01T10:23:50.391Z,9.43
2023-03-01T10:26:44.750Z,9.55
2023-03-01T10:29:13.546Z,8.90
2023-03-01T10:31:54.850Z,8.52
2023-03-01T10:34:35.522Z,7.95
2023-03-01T10:37:14.004Z,8.43
2023-03-01T10:40:09.261Z,8.52
2023-03-01T10:42:48.406Z,8.32
2023-03-01T10:45:39.482Z,8.20
2023-03-01T10:48:20.301Z,8.45
2023-03-01T10:51:06.562Z,8.23
2023-03-01T10:56:07.385Z,9.73
2023-03-01T10:58:37.880Z,8.38
2023-03-01T11:01:29.223Z,8.32
2023-03-01T11:04:08.205Z,8.25
2023-03-01T11:06:37.917Z,7.95
2023-03-01T11:09:28.161Z,8.68
2023-03-01T11:12:01.487Z,8.93
2023-03-01T11:14:36.270Z,8.52
2023-03-01T11:17:16.890Z,9.23
2023-03-01T11:19:46.918Z,8.45
2023-03-01T11:22:23.429Z,8.38
2023-03-01T11:25:08.855Z,7.85
2023-03-01T11:27:44.327Z,7.97
2023-03-01T11:31:05.588Z,7.95
2023-03-01T11:33:45.621Z,7.50
2023-03-01T11:36:48.592Z,8.10
2023-03-01T11:39:48.043Z,8.07
2023-03-01T11:42:53.305Z,7.55
2023-03-01T11:45:24.048Z,8.40
2023-03-01T11:48:02.590Z,8.20
2023-03-01T11:50:39.127Z,8.75
2023-03-01T11:55:57.180Z,7.95
2023-03-01T11:58:54.314Z,8.27
2023-03-01T12:02:01.168Z,8.10
2023-03-01T12:07:43.202Z,8.10
2023-03-01T12:10:36.706Z,7.78
2023-03-01T12:13:15.375Z,8.40
2023-03-01T12:15:57.175Z,7.97
2023-03-01T12:18:53.506Z,8.48
2023-03-01T12:22:10.858Z,7.57
2023-03-01T12:27:45.215Z,7.57
2023-03-01T12:31:09.333Z,7.75
2023-03-01T12:34:24.250Z,7.20
2023-03-01T12:36:57.032Z,6.65
2023-03-01T12:40:04.608Z,6.85
2023-03-01T12:43:09.742Z,7.57
2023-03-01T12:46:15.467Z,7.13
2023-03-01T12:48:44.559Z,6.38
2023-03-01T12:51:18.632Z,6.80
2023-03-01T12:53:49.490Z,6.60
2023-03-01T12:56:25.178Z,6.22
2023-03-01T13:02:21.606Z,6.07
2023-03-01T13:05:13.028Z,6.50
2023-03-01T13:08:08.402Z,6.68
2023-03-01T13:10:50.725Z,5.45
2023-03-01T13:13:24.646Z,6.50
2023-03-01T13:15:52.638Z,6.43
2023-03-01T13:18:26.353Z,6.40
2023-03-01T13:20:58.160Z,6.10
2023-03-01T13:23:30.127Z,5.90
2023-03-01T13:25:59.758Z,6.00
2023-03-01T13:28:39.696Z,5.78
2023-03-01T13:31:27.364Z,5.63
2023-03-01T13:33:55.756Z,6.07
2023-03-01T13:36:28.606Z,5.90
2023-03-01T13:38:56.174Z,6.00
2023-03-01T13:41:44.950Z,6.15
2023-03-01T13:44:34.539Z,6.82
2023-03-01T13:47:18.310Z,5.88
2023-03-01T13:49:49.272Z,6.45
2023-03-01T13:52:51.479Z,6.45
2023-03-01T13:55:44.745Z,5.93
2023-03-01T13:58:32.386Z,6.70
2023-03-01T14:01:09.414Z,6.25
2023-03-01T14:03:43.010Z,5.95
2023-03-01T14:06:30.104Z,6.22
2023-03-01T14:09:18.638Z,5.82
2023-03-01T14:12:22.212Z,5.60
2023-03-01T14:15:16.782Z,5.97
2023-03-01T14:17:43.508Z,6.30
2023-03-01T14:20:33.301Z,6.65
2023-03-01T14:23:09.976Z,5.95
2023-03-01T14:25:39.342Z,5.90
2023-03-01T14:28:25.436Z,6.00
2023-03-01T14:30:57.731Z,7.80
2023-03-01T14:33:38.115Z,6.95
2023-03-01T14:36:14.222Z,6.38
2023-03-01T14:38:47.771Z,6.32
2023-03-01T14:41:16.934Z,6.15
2023-03-01T14:43:53.188Z,5.93
2023-03-01T14:46:34.606Z,6.65
2023-03-01T14:49:22.830Z,6.57
2023-03-01T14:52:00.166Z,6.30
2023-03-01T14:54:45.357Z,6.57
2023-03-01T14:57:27.391Z,6.45
2023-03-01T15:00:01.852Z,5.60
2023-03-01T15:02:31.147Z,6.88
2023-03-01T15:05:02.507Z,7.07
2023-03-01T15:07:34.939Z,5.75
2023-03-01T15:10:03.705Z,6.43
2023-03-01T15:12:38.490Z,6.93
2023-03-01T15:15:35.761Z,5.95
2023-03-01T15:18:31.283Z,6.30
2023-03-01T15:21:24.362Z,5.90
2023-03-01T15:23:59.087Z,5.60
2023-03-01T15:26:31.873Z,6.38
2023-03-01T15:29:01.152Z,6.15
2023-03-01T15:31:36.941Z,6.65
2023-03-01T15:36:46.695Z,6.03
2023-03-01T15:39:40.967Z,5.50
2023-03-01T15:42:34.963Z,6.03
2023-03-01T15:45:17.859Z,6.35
2023-03-01T15:47:58.848Z,5.45
2023-03-01T15:50:31.182Z,5.80
2023-03-01T15:53:00.143Z,5.50
2023-03-01T15:55:34.114Z,5.88
2023-03-01T15:58:03.016Z,6.10
2023-03-01T16:00:30.465Z,4.80
2023-03-01T16:02:57.752Z,6.18
2023-03-01T16:05:25.876Z,5.32
2023-03-01T16:07:53.670Z,5.28
2023-03-01T16:10:21.732Z,5.88
2023-03-01T16:12:48.895Z,5.22
2023-03-01T16:15:25.021Z,5.57
2023-03-01T16:17:53.052Z,5.68
2023-03-01T16:20:28.404Z,5.85
2023-03-01T16:23:03.406Z,5.43
2023-03-01T16:25:32.349Z,5.13
2023-03-01T16:28:01.809Z,5.30
2023-03-01T16:30:28.781Z,5.10
2023-03-01T16:32:55.538Z,4.57
2023-03-01T16:35:23.143Z,5.80
2023-03-01T16:37:50.363Z,5.38
2023-03-01T16:40:20.217Z,5.38
2023-03-01T16:42:47.873Z,5.03
2023-03-01T16:45:26.454Z,5.93
2023-03-01T16:47:55.848Z,5.88
2023-03-01T16:50:23.941Z,5.72
2023-03-01T16:52:50.749Z,5.20
2023-03-01T16:55:17.936Z,6.40
2023-03-01T16:57:44.874Z,5.35
2023-03-01T17:00:14.108Z,5.75
2023-03-01T17:02:42.686Z,5.93
2023-03-01T17:05:11.960Z,5.72
2023-03-01T17:07:39.462Z,5.90
2023-03-01T17:10:10.169Z,5.72
2023-03-01T17:12:37.635Z,6.55
2023-03-01T17:15:06.524Z,6.22
2023-03-01T17:17:33.415Z,5.28
2023-03-01T17:20:00.068Z,6.20
2023-03-01T17:22:26.834Z,4.70
2023-03-01T17:24:53.533Z,5.57
2023-03-01T17:27:20.335Z,6.38
2023-03-01T17:29:47.275Z,5.93
2023-03-01T17:32:14.174Z,5.55
2023-03-01T17:34:40.991Z,5.30
2023-03-01T17:37:07.649Z,4.93
2023-03-01T17:39:36.461Z,6.10
2023-03-01T17:42:06.162Z,5.35
2023-03-01T17:44:34.828Z,6.07
2023-03-01T17:47:05.811Z,6.43
2023-03-01T17:49:33.244Z,5.60
2023-03-01T17:52:00.412Z,6.30
2023-03-01T17:54:27.579Z,6.05
2023-03-01T17:56:55.850Z,6.13
2023-03-01T17:59:22.731Z,5.45
2023-03-01T18:01:49.563Z,5.78
2023-03-01T18:04:18.405Z,5.35
2023-03-01T18:06:45.375Z,5.82
2023-03-01T18:09:14.874Z,6.03
2023-03-01T18:11:42.204Z,5.40
2023-03-01T18:14:09.116Z,5.32
2023-03-01T18:16:36.423Z,6.10
2023-03-01T18:19:03.302Z,6.63
2023-03-01T18:21:31.061Z,5.22
2023-03-01T18:23:59.651Z,7.32
2023-03-01T18:26:27.716Z,6.07
2023-03-01T18:28:58.182Z,6.07
2023-03-01T18:31:25.920Z,5.13
2023-03-01T18:33:55.222Z,6.07
2023-03-01T18:36:27.529Z,6.30
2023-03-01T18:38:56.258Z,6.50
2023-03-01T18:41:28.320Z,5.00
2023-03-01T18:43:57.058Z,5.68
2023-03-01T18:46:24.074Z,5.72
2023-03-01T18:48:53.250Z,6.50
2023-03-01T18:51:23.999Z,4.50
2023-03-01T18:53:51.013Z,5.57
2023-03-01T18:56:17.838Z,5.10
2023-03-01T18:58:44.743Z,5.63
2023-03-01T19:01:21.594Z,4.95
2023-03-01T19:03:49.129Z,5.50
2023-03-01T19:06:17.166Z,5.90
2023-03-01T19:08:44.782Z,5.82
2023-03-01T19:11:14.271Z,5.75
2023-03-01T19:13:41.221Z,5.70
2023-03-01T19:16:16.240Z,5.57
2023-03-01T19:18:50.051Z,6.40
2023-03-01T19:21:21.903Z,5.93
2023-03-01T19:23:49.391Z,6.43
2023-03-01T19:26:19.888Z,5.38
2023-03-01T19:28:47.312Z,4.78
2023-03-01T19:31:18.271Z,5.40
2023-03-01T19:33:45.481Z,6.80
2023-03-01T19:36:14.943Z,6.05
2023-03-01T19:38:43.361Z,5.55
2023-03-01T19:41:15.583Z,5.55
2023-03-01T19:43:45.220Z,5.88
2023-03-01T19:46:13.508Z,5.72
2023-03-01T19:48:40.515Z,6.63
2023-03-01T19:51:08.909Z,5.93
2023-03-01T19:53:37.500Z,5.95
2023-03-01T19:56:04.957Z,6.13
2023-03-01T19:58:33.099Z,5.78
2023-03-01T20:01:00.636Z,6.90
2023-03-01T20:03:36.670Z,5.38
2023-03-01T20:08:40.872Z,6.28
2023-03-01T20:11:11.003Z,6.10
2023-03-01T20:13:38.185Z,6.07
2023-03-01T20:16:06.022Z,7.18
2023-03-01T20:18:33.955Z,5.97
2023-03-01T20:21:02.786Z,6.10
2023-03-01T20:23:30.705Z,7.70
2023-03-01T20:26:19.137Z,7.10
2023-03-01T20:28:51.878Z,6.90
2023-03-01T20:31:21.285Z,6.03
2023-03-01T20:33:48.917Z,6.60
2023-03-01T20:36:15.746Z,6.05
2023-03-01T20:38:42.678Z,6.43
2023-03-01T20:41:13.355Z,5.97
2023-03-01T20:43:42.468Z,6.22
2023-03-01T20:46:13.115Z,6.70
2023-03-01T20:48:43.259Z,6.63
2023-03-01T20:51:12.517Z,6.50
2023-03-01T20:53:40.277Z,5.40
2023-03-01T20:56:11.106Z,6.53
2023-03-01T20:58:38.337Z,6.18
2023-03-01T21:01:07.106Z,7.57
2023-03-01T21:03:34.718Z,6.82
2023-03-01T21:06:06.052Z,6.68
2023-03-01T21:08:34.255Z,7.00
2023-03-01T21:11:02.450Z,6.95
2023-03-01T21:13:30.393Z,8.02
2023-03-01T21:16:03.272Z,6.75
2023-03-01T21:18:32.914Z,6.75
2023-03-01T21:21:07.252Z,6.93
2023-03-01T21:23:36.025Z,7.07
2023-03-01T21:26:11.662Z,6.70
2023-03-01T21:28:39.860Z,6.55
2023-03-01T21:31:19.643Z,6.32
2023-03-01T21:33:55.980Z,6.22
2023-03-01T21:36:24.973Z,7.72
2023-03-01T21:38:53.574Z,7.05
2023-03-01T21:41:23.332Z,7.78
2023-03-01T21:43:53.157Z,6.60
2023-03-01T21:46:25.958Z,6.80
2023-03-01T21:48:55.210Z,7.05
2023-03-01T21:51:25.899Z,7.55
2023-03-01T21:53:55.524Z,7.85
2023-03-01T21:56:29.518Z,7.75
2023-03-01T21:58:58.603Z,7.55
2023-03-01T22:01:27.659Z,6.95
2023-03-01T22:03:59.145Z,7.03
2023-03-01T22:06:38.083Z,7.00
2023-03-01T22:09:15.813Z,8.10
2023-03-01T22:11:50.082Z,7.32
2023-03-01T22:14:18.929Z,6.70
2023-03-01T22:16:47.675Z,7.63
2023-03-01T22:19:16.817Z,6.47
2023-03-01T22:21:49.422Z,7.45
2023-03-01T22:24:23.250Z,8.05
2023-03-01T22:26:52.178Z,7.10
2023-03-01T22:29:26.164Z,6.93
2023-03-01T22:31:53.905Z,7.35
2023-03-01T22:34:21.042Z,7.18
2023-03-01T22:36:48.116Z,6.75
2023-03-01T22:39:17.864Z,7.35
2023-03-01T22:41:46.861Z,6.40
2023-03-01T22:44:20.501Z,7.53
2023-03-01T22:46:48.434Z,7.70
2023-03-01T22:49:16.207Z,7.63
2023-03-01T22:51:44.788Z,7.40
2023-03-01T22:54:11.881Z,7.25
2023-03-01T22:56:39.450Z,7.20
2023-03-01T22:59:10.490Z,6.60
2023-03-01T23:01:39.450Z,7.45
2023-03-01T23:04:06.794Z,6.30
2023-03-01T23:06:34.635Z,6.15
2023-03-01T23:09:04.444Z,7.38
2023-03-01T23:11:34.052Z,6.90
2023-03-01T23:14:00.681Z,6.90
2023-03-01T23:16:27.472Z,7.10
2023-03-01T23:18:56.412Z,7.05
2023-03-01T23:21:23.228Z,7.18
2023-03-01T23:23:50.403Z,7.25
2023-03-01T23:26:18.885Z,6.30
2023-03-01T23:28:45.628Z,6.60
2023-03-01T23:31:14.824Z,7.18
2023-03-01T23:33:45.037Z,6.50
2023-03-01T23:36:23.790Z,5.57
2023-03-01T23:38:54.123Z,6.15
2023-03-01T23:41:24.394Z,6.63
2023-03-01T23:43:54.460Z,6.63
2023-03-01T23:46:24.376Z,6.13
2023-03-01T23:48:51.562Z,7.10
2023-03-01T23:51:19.517Z,7.10
2023-03-01T23:53:55.364Z,7.20
2023-03-01T23:56:26.260Z,7.47
2023-03-01T23:59:02.442Z,7.10
